الصفحة الرئيسية
METAR-TAF:

METAR-TAF

مطار :

مطار جبل طارق

جبل طارق, جبل طارق

دائرة عرض: 36-09N, خط طول: 005-21W, ارتفاع: 5 متر

مراقبة الطقس الحالي

تاريخ ووقت الإصدار 44 دقيقة قبل الساعة 01:50UTC
ريح 9 عقدة من الجنوب الغربي
درجة الحرارة 17°درجة مئوية
الرطوبة 77%
ضغط 1022 hPa
الرؤية 10 كم أو أكثر

METAR: LXGB 120150Z AUTO 23009KT 9999 // OVC050/// 17/13 Q1022

زمن: 03:34 (02:34 UTC)

توقعات

تاريخ ووقت الإصدار 10ساعات و 5 دقيقة قبل الساعة 16:29UTC
التوقعات صالحة من11 الساعة 18 UTC إلى 11 الساعة 23 UTC
ريح 6 عقدة من الغرب/الجنوب الغربي
الرؤية 10 كم أو أكثر
غيوم قليلة على ارتفاع 2000 قدم
غيوم مفككة على ارتفاع 4000 قدم
نظرية الاحتمالات 40% :
مؤقت
من 11 الساعة 18 UTC إلى 11 الساعة 23 UTC
الرؤية: 7000 متر
غيوم متفرقة على ارتفاع 2000 قدم
العجاج

TAF: LXGB 111629Z 1118/1123 25006KT 9999 FEW020 BKN040 PROB40 TEMPO 1118/1123 7000 HZ SCT020

أرصاد الطقس والتوقعات من أكثر من 4000 مطار (تقارير الطقس للمطار METAR والتنبؤ بالطقس بالمطارTAF).

المحطات المتاحة هي النقط الصفراء والحمراء على الخريطة.

حرك المؤشر فوق النقطة لمعرفة اسم المحطة.

ثم انقر لمعرفة أرصاد وتوقعات الطقس.

لتغيير الخارطة: اضغط على الأزرار الخضراء مع رمز الصليب الأسود للتكبير. على الزر الأخضر مع شرطة للتصغير، أو على الأسهم الخضراء للخرائط المجاورة.


METAR-TAF: